Time;durP1;ratioP1;P1;durP2;ratioP2;P2;SDS_P1;SDS_P2;PMS_P1;PMS_P2;Temp;Humidity;BMP_temperature;BMP_pressure;BME280_temperature;BME280_humidity;BME280_pressure;Samples;Min_cycle;Max_cycle;Signal;HPM_P1;HPM_P2
2022/11/07 00:00:28;;;;;;;;;0.00;0.00;;;;;;;;4735131;30;27877;-94
2022/11/07 00:02:53;;;;;;;;;0.00;0.00;;;;;;;;4735407;30;30850;-94
2022/11/07 00:05:19;;;;;;;;;0.00;0.00;;;;;;;;4764417;29;28504;-94
2022/11/07 00:07:44;;;;;;;;;0.00;0.00;;;;;;;;4755970;29;27872;-95
2022/11/07 00:10:09;;;;;;;;;0.00;0.00;;;;;;;;4734325;30;28547;-95
2022/11/07 00:12:35;;;;;;;;;0.00;0.00;;;;;;;;4746100;29;31090;-95
2022/11/07 00:15:01;;;;;;;;;0.00;0.00;;;;;;;;4752294;29;28708;-95
2022/11/07 00:17:26;;;;;;;;;0.00;0.00;;;;;;;;4752592;29;28469;-95
2022/11/07 00:19:59;;;;;;;;;0.00;0.00;;;;;;;;4745074;30;28446;-95
2022/11/07 00:22:24;;;;;;;;;0.00;0.00;;;;;;;;4735105;30;30133;-95
2022/11/07 00:24:49;;;;;;;;;0.00;0.00;;;;;;;;4734546;30;28880;-94
2022/11/07 00:27:37;;;;;;;;;1.00;0.00;;;;;;;;4742113;29;27849;-95
2022/11/07 00:30:05;;;;;;;;;0.00;0.00;;;;;;;;4735055;30;28497;-95
2022/11/07 00:32:30;;;;;;;;;0.00;0.00;;;;;;;;4764437;29;29874;-94
2022/11/07 00:34:59;;;;;;;;;0.00;0.00;;;;;;;;4750548;30;28410;-94
2022/11/07 00:37:24;;;;;;;;;0.00;0.00;;;;;;;;4764498;29;28602;-95
2022/11/07 00:39:50;;;;;;;;;0.00;0.00;;;;;;;;4763889;29;28535;-96
2022/11/07 00:42:15;;;;;;;;;0.00;0.00;;;;;;;;4763908;29;29901;-94
2022/11/07 00:44:40;;;;;;;;;0.00;0.00;;;;;;;;4763938;29;29662;-93
2022/11/07 00:47:05;;;;;;;;;0.00;0.00;;;;;;;;4764384;29;28482;-94
2022/11/07 00:49:34;;;;;;;;;0.00;0.00;;;;;;;;4763965;29;28540;-94
2022/11/07 00:51:59;;;;;;;;;0.00;0.00;;;;;;;;4763806;29;30336;-95
2022/11/07 00:54:24;;;;;;;;;0.00;0.00;;;;;;;;4763341;29;28424;-95
2022/11/07 00:56:49;;;;;;;;;0.00;0.00;;;;;;;;4763592;29;28802;-96
2022/11/07 00:59:22;;;;;;;;;0.00;0.00;;;;;;;;4755987;29;28448;-94
2022/11/07 01:01:48;;;;;;;;;0.00;0.00;;;;;;;;4766307;29;30141;-95
2022/11/07 01:06:58;;;;;;;;;0.00;0.00;;;;;;;;4763277;29;28511;-94
2022/11/07 01:09:23;;;;;;;;;0.00;0.00;;;;;;;;4763440;29;28532;-95
2022/11/07 01:11:48;;;;;;;;;0.00;0.00;;;;;;;;4763645;29;29828;-95
2022/11/07 01:14:15;;;;;;;;;0.00;0.00;;;;;;;;4763868;29;28531;-94
2022/11/07 01:16:40;;;;;;;;;0.00;0.00;;;;;;;;4751388;29;28451;-95
2022/11/07 01:19:06;;;;;;;;;0.00;0.00;;;;;;;;4738131;29;28574;-95
2022/11/07 01:21:31;;;;;;;;;0.00;0.00;;;;;;;;4751746;29;29902;-95
2022/11/07 01:23:57;;;;;;;;;0.00;0.00;;;;;;;;4745452;30;29153;-94
2022/11/07 01:26:22;;;;;;;;;0.00;0.00;;;;;;;;4734305;30;28532;-94
2022/11/07 01:28:47;;;;;;;;;1.00;1.00;;;;;;;;4734001;30;28570;-94
2022/11/07 01:31:14;;;;;;;;;0.00;0.00;;;;;;;;4742364;30;30310;-95
2022/11/07 01:33:40;;;;;;;;;0.00;0.00;;;;;;;;4734156;30;29673;-95
2022/11/07 01:36:11;;;;;;;;;0.00;0.00;;;;;;;;4734280;30;28592;-95
2022/11/07 01:38:40;;;;;;;;;0.00;0.00;;;;;;;;4734670;30;28468;-95
2022/11/07 01:41:24;;;;;;;;;0.00;0.00;;;;;;;;4733774;30;30882;-95
2022/11/07 01:44:01;;;;;;;;;0.00;0.00;;;;;;;;4741976;29;28985;-95
2022/11/07 01:46:28;;;;;;;;;0.00;0.00;;;;;;;;4751174;29;28505;-95
2022/11/07 01:49:01;;;;;;;;;0.00;0.00;;;;;;;;4751283;29;28717;-95
2022/11/07 01:51:27;;;;;;;;;0.00;0.00;;;;;;;;4744116;30;29823;-95
2022/11/07 01:53:53;;;;;;;;;0.00;0.00;;;;;;;;4763200;29;28629;-95
2022/11/07 01:56:24;;;;;;;;;0.00;0.00;;;;;;;;4763318;29;28492;-94
2022/11/07 01:58:56;;;;;;;;;0.00;0.00;;;;;;;;4763571;29;28635;-95
2022/11/07 02:01:21;;;;;;;;;0.00;0.00;;;;;;;;4765625;29;30061;-94
2022/11/07 02:03:48;;;;;;;;;0.00;0.00;;;;;;;;4766526;29;28515;-95
2022/11/07 02:06:16;;;;;;;;;0.00;0.00;;;;;;;;4766288;29;28583;-95
2022/11/07 02:08:42;;;;;;;;;0.33;0.33;;;;;;;;4766050;29;28542;-94
2022/11/07 02:11:16;;;;;;;;;0.00;0.00;;;;;;;;4766064;29;30686;-96
2022/11/07 02:13:41;;;;;;;;;0.00;0.00;;;;;;;;4766223;29;28674;-95
2022/11/07 02:16:09;;;;;;;;;0.00;0.00;;;;;;;;4766423;29;28473;-96
2022/11/07 02:18:36;;;;;;;;;0.00;0.00;;;;;;;;4766290;29;27909;-94
2022/11/07 02:21:21;;;;;;;;;0.00;0.00;;;;;;;;4764878;29;30726;-94
2022/11/07 02:23:59;;;;;;;;;0.00;0.00;;;;;;;;4680170;30;29875;-94
2022/11/07 02:26:25;;;;;;;;;0.00;0.00;;;;;;;;4666370;30;28716;-94
2022/11/07 02:28:51;;;;;;;;;0.00;0.00;;;;;;;;4679818;30;28514;-95
2022/11/07 02:31:17;;;;;;;;;0.00;0.00;;;;;;;;4683099;30;29889;-95
2022/11/07 02:33:42;;;;;;;;;0.00;0.00;;;;;;;;4683210;30;28573;-95
2022/11/07 02:36:11;;;;;;;;;0.00;0.00;;;;;;;;4676797;30;28612;-94
2022/11/07 02:38:36;;;;;;;;;0.00;0.00;;;;;;;;4665535;30;28669;-95
2022/11/07 02:41:02;;;;;;;;;0.00;0.00;;;;;;;;4665407;30;30189;-96
2022/11/07 02:43:34;;;;;;;;;0.00;0.00;;;;;;;;4665610;30;28822;-94
2022/11/07 02:46:01;;;;;;;;;0.00;0.00;;;;;;;;4665668;30;28961;-94
2022/11/07 02:48:29;;;;;;;;;0.00;0.00;;;;;;;;4665712;30;28631;-95
2022/11/07 02:50:55;;;;;;;;;0.00;0.00;;;;;;;;4665442;30;29979;-95
2022/11/07 02:53:20;;;;;;;;;0.00;0.00;;;;;;;;4665449;30;28925;-94
2022/11/07 02:55:45;;;;;;;;;0.00;0.00;;;;;;;;4665669;30;27924;-95
2022/11/07 02:58:13;;;;;;;;;0.00;0.00;;;;;;;;4671969;30;27915;-95
2022/11/07 03:00:38;;;;;;;;;0.00;0.00;;;;;;;;4704229;30;30957;-94
2022/11/07 03:03:06;;;;;;;;;0.00;0.00;;;;;;;;4735994;30;28473;-94
2022/11/07 03:05:31;;;;;;;;;0.00;0.00;;;;;;;;4736694;30;28556;-95
2022/11/07 03:08:00;;;;;;;;;0.00;0.00;;;;;;;;4736249;29;28384;-95
2022/11/07 03:10:27;;;;;;;;;0.00;0.00;;;;;;;;4768022;29;29904;-95
2022/11/07 03:12:52;;;;;;;;;0.00;0.00;;;;;;;;4753102;29;28710;-95
2022/11/07 03:15:23;;;;;;;;;0.00;0.00;;;;;;;;4737956;30;28483;-96
2022/11/07 03:17:48;;;;;;;;;0.00;0.00;;;;;;;;4765690;29;28678;-95
2022/11/07 03:20:13;;;;;;;;;0.00;0.00;;;;;;;;4765211;29;29907;-95
2022/11/07 03:22:39;;;;;;;;;0.00;0.00;;;;;;;;4765723;29;28647;-96
2022/11/07 03:25:05;;;;;;;;;0.00;0.00;;;;;;;;4765421;29;28304;-95
2022/11/07 03:27:30;;;;;;;;;0.00;0.00;;;;;;;;4763695;29;28499;-95
2022/11/07 03:29:56;;;;;;;;;0.00;0.00;;;;;;;;4735567;30;30891;-94
2022/11/07 03:32:21;;;;;;;;;0.00;0.00;;;;;;;;4735419;30;28744;-95
2022/11/07 03:34:47;;;;;;;;;0.00;0.00;;;;;;;;4735307;30;28504;-95
2022/11/07 03:37:12;;;;;;;;;0.00;0.00;;;;;;;;4735488;30;27878;-95
2022/11/07 03:39:40;;;;;;;;;0.00;0.00;;;;;;;;4734986;30;30507;-94
2022/11/07 03:42:06;;;;;;;;;0.00;0.00;;;;;;;;4735530;30;28650;-94
2022/11/07 03:44:31;;;;;;;;;0.00;0.00;;;;;;;;4735460;30;28399;-95
2022/11/07 03:46:56;;;;;;;;;0.00;0.00;;;;;;;;4735482;30;28446;-95
2022/11/07 03:49:21;;;;;;;;;0.00;0.00;;;;;;;;4735059;30;29843;-95
2022/11/07 03:51:49;;;;;;;;;0.00;0.00;;;;;;;;4735170;30;28508;-95
2022/11/07 03:54:17;;;;;;;;;0.00;0.00;;;;;;;;4735056;30;28372;-95
2022/11/07 03:56:43;;;;;;;;;0.00;0.00;;;;;;;;4735291;30;28450;-95
2022/11/07 03:59:11;;;;;;;;;0.00;0.00;;;;;;;;4734851;30;29833;-95
2022/11/07 04:01:36;;;;;;;;;0.00;0.00;;;;;;;;4735318;30;28871;-95
2022/11/07 04:04:02;;;;;;;;;0.00;0.00;;;;;;;;4734619;30;27901;-96
2022/11/07 04:06:27;;;;;;;;;0.00;0.00;;;;;;;;4749861;30;28749;-95
2022/11/07 04:09:13;;;;;;;;;0.00;0.00;;;;;;;;4748844;30;29733;-95
2022/11/07 04:17:19;;;;;;;;;0.00;0.00;;;;;;;;4768260;29;28972;-94
2022/11/07 04:19:48;;;;;;;;;0.00;0.00;;;;;;;;4748906;30;31899;-96
2022/11/07 04:22:13;;;;;;;;;0.00;0.00;;;;;;;;4748765;30;29210;-96
2022/11/07 04:24:41;;;;;;;;;0.00;0.00;;;;;;;;4748446;30;29119;-95
2022/11/07 04:29:54;;;;;;;;;0.00;0.00;;;;;;;;4767649;29;28956;-96
2022/11/07 04:32:20;;;;;;;;;0.00;0.00;;;;;;;;4752252;29;29985;-95
2022/11/07 04:34:46;;;;;;;;;0.00;0.00;;;;;;;;4752105;29;28372;-95
2022/11/07 04:37:11;;;;;;;;;0.00;0.00;;;;;;;;4752456;29;28438;-96
2022/11/07 04:39:36;;;;;;;;;0.00;0.00;;;;;;;;4752128;29;29943;-96
2022/11/07 04:42:41;;;;;;;;;;;;;;;;;;2621983;30;82494010;-96
2022/11/07 04:49:21;;;;;;;;;0.00;0.00;;;;;;;;44770;29;175390644;-96
2022/11/07 04:56:25;;;;;;;;;0.00;0.00;;;;;;;;2;205659259;205659259;-94
2022/11/07 05:04:19;;;;;;;;;0.00;0.00;;;;;;;;2;250004515;250004515;-95
2022/11/07 05:06:44;;;;;;;;;0.00;0.00;;;;;;;;4723020;30;318412;-95
2022/11/07 05:09:19;;;;;;;;;0.00;0.00;;;;;;;;4763319;29;28944;-94
2022/11/07 05:11:44;;;;;;;;;0.00;0.00;;;;;;;;4763394;29;31506;-95
2022/11/07 05:14:10;;;;;;;;;0.00;0.00;;;;;;;;4763518;29;29064;-95
2022/11/07 05:16:36;;;;;;;;;0.00;0.00;;;;;;;;4763383;29;29121;-95
2022/11/07 05:19:01;;;;;;;;;0.00;0.00;;;;;;;;4763360;29;28990;-94
2022/11/07 05:21:26;;;;;;;;;0.00;0.00;;;;;;;;4764511;29;30764;-95
2022/11/07 05:23:52;;;;;;;;;0.00;0.00;;;;;;;;4769407;29;28624;-94
2022/11/07 05:26:31;;;;;;;;;0.00;0.00;;;;;;;;4769550;29;28522;-95
2022/11/07 05:28:57;;;;;;;;;0.00;0.00;;;;;;;;4763092;29;28792;-96
2022/11/07 05:31:22;;;;;;;;;0.00;0.00;;;;;;;;4748240;30;31721;-95
2022/11/07 05:33:53;;;;;;;;;0.00;0.00;;;;;;;;4741738;30;29042;-95
2022/11/07 05:36:19;;;;;;;;;0.00;0.00;;;;;;;;4744715;30;28377;-95
2022/11/07 05:39:02;;;;;;;;;0.00;0.00;;;;;;;;4743867;30;29002;-95
2022/11/07 05:41:30;;;;;;;;;0.00;0.00;;;;;;;;4736712;30;31007;-96
2022/11/07 05:44:08;;;;;;;;;0.00;0.00;;;;;;;;4736746;30;30060;-95
2022/11/07 05:46:33;;;;;;;;;0.00;0.00;;;;;;;;4737061;30;28349;-94
2022/11/07 05:48:59;;;;;;;;;0.00;0.00;;;;;;;;4740069;29;27861;-95
2022/11/07 05:51:24;;;;;;;;;0.00;0.00;;;;;;;;4754140;29;29764;-95
2022/11/07 05:53:49;;;;;;;;;0.00;0.00;;;;;;;;4754512;29;28550;-96
2022/11/07 05:56:14;;;;;;;;;0.00;0.00;;;;;;;;4754895;29;28580;-96
2022/11/07 05:58:43;;;;;;;;;0.00;0.00;;;;;;;;4754402;29;28440;-95
2022/11/07 06:01:08;;;;;;;;;0.00;0.00;;;;;;;;4754689;29;30213;-95
2022/11/07 06:03:33;;;;;;;;;0.00;0.00;;;;;;;;4754438;29;29773;-94
2022/11/07 06:05:58;;;;;;;;;0.00;0.00;;;;;;;;4754450;29;28781;-95
2022/11/07 06:08:27;;;;;;;;;0.00;0.00;;;;;;;;4755884;29;28470;-94
2022/11/07 06:10:54;;;;;;;;;0.00;0.00;;;;;;;;4754640;29;29889;-95
2022/11/07 06:13:22;;;;;;;;;0.00;0.00;;;;;;;;4754513;29;29669;-95
2022/11/07 06:15:53;;;;;;;;;0.00;0.00;;;;;;;;4754953;29;28500;-95
2022/11/07 06:18:19;;;;;;;;;0.00;0.00;;;;;;;;4754628;29;28482;-95
2022/11/07 06:20:47;;;;;;;;;0.00;0.00;;;;;;;;4754629;29;29988;-96
2022/11/07 06:23:12;;;;;;;;;0.00;0.00;;;;;;;;4753971;29;29602;-94
2022/11/07 06:25:38;;;;;;;;;0.00;0.00;;;;;;;;4743272;30;28571;-95
2022/11/07 06:28:04;;;;;;;;;0.00;0.00;;;;;;;;4737173;29;28378;-95
2022/11/07 06:30:30;;;;;;;;;0.00;0.00;;;;;;;;4766197;29;29976;-95
2022/11/07 06:33:02;;;;;;;;;0.00;0.00;;;;;;;;4766575;29;28436;-94
2022/11/07 06:35:27;;;;;;;;;0.00;0.00;;;;;;;;4766395;29;28559;-95
2022/11/07 06:37:52;;;;;;;;;0.00;0.00;;;;;;;;4758724;29;28537;-95
2022/11/07 06:40:18;;;;;;;;;0.00;0.00;;;;;;;;4741976;30;30063;-94
2022/11/07 06:42:43;;;;;;;;;0.00;0.00;;;;;;;;4743140;30;28544;-95
2022/11/07 06:45:10;;;;;;;;;0.00;0.00;;;;;;;;4743095;30;28439;-96
2022/11/07 06:47:35;;;;;;;;;0.00;0.00;;;;;;;;4742330;30;27872;-95
2022/11/07 06:50:00;;;;;;;;;0.00;0.00;;;;;;;;4749068;30;29869;-96
2022/11/07 06:52:29;;;;;;;;;0.00;0.00;;;;;;;;4775178;29;28877;-93
2022/11/07 06:54:54;;;;;;;;;0.00;0.00;;;;;;;;4759309;29;28563;-95
2022/11/07 06:57:19;;;;;;;;;0.00;0.00;;;;;;;;4753056;29;28658;-94
2022/11/07 06:59:45;;;;;;;;;0.00;0.00;;;;;;;;4735939;30;29908;-96
2022/11/07 07:02:13;;;;;;;;;0.00;0.00;;;;;;;;4735834;30;28779;-96
2022/11/07 07:04:38;;;;;;;;;0.00;0.00;;;;;;;;4737450;30;28564;-95
2022/11/07 07:07:04;;;;;;;;;0.00;0.00;;;;;;;;4736258;29;28510;-96
2022/11/07 07:09:37;;;;;;;;;0.00;0.00;;;;;;;;4749917;29;30093;-96
2022/11/07 07:12:05;;;;;;;;;0.00;0.00;;;;;;;;4752831;29;28885;-95
2022/11/07 07:14:30;;;;;;;;;0.00;0.00;;;;;;;;4753722;29;28570;-95
2022/11/07 07:16:57;;;;;;;;;0.00;0.00;;;;;;;;4758197;29;28793;-95
2022/11/07 07:19:28;;;;;;;;;6.00;6.00;;;;;;;;4758266;29;30229;-96
2022/11/07 07:21:53;;;;;;;;;0.00;0.00;;;;;;;;4765799;29;29016;-93
2022/11/07 07:24:18;;;;;;;;;0.00;0.00;;;;;;;;3113784;29;50131949;-95
2022/11/07 07:26:44;;;;;;;;;0.00;0.00;;;;;;;;4742389;30;29012;-95
2022/11/07 07:29:09;;;;;;;;;0.00;0.00;;;;;;;;4735360;30;29152;-90
2022/11/07 07:31:34;;;;;;;;;0.00;0.00;;;;;;;;4752474;29;29064;-91
2022/11/07 07:33:59;;;;;;;;;0.00;0.00;;;;;;;;4762612;29;29456;-89
2022/11/07 07:36:24;;;;;;;;;0.00;0.00;;;;;;;;4756655;29;29106;-84
2022/11/07 07:38:50;;;;;;;;;0.00;0.00;;;;;;;;4741799;30;29079;-84
2022/11/07 07:41:16;;;;;;;;;0.00;0.00;;;;;;;;4761756;29;28969;-89
2022/11/07 07:43:41;;;;;;;;;0.00;0.00;;;;;;;;4753432;29;29029;-87
2022/11/07 07:46:07;;;;;;;;;0.00;0.00;;;;;;;;4761853;29;28930;-85
2022/11/07 07:48:32;;;;;;;;;0.00;0.00;;;;;;;;4764792;29;28821;-88
2022/11/07 07:50:58;;;;;;;;;0.00;0.00;;;;;;;;4751809;29;28971;-87
2022/11/07 07:53:23;;;;;;;;;0.00;0.00;;;;;;;;4762387;29;28701;-86
2022/11/07 07:55:48;;;;;;;;;0.00;0.00;;;;;;;;4763783;29;28739;-86
2022/11/07 07:58:14;;;;;;;;;0.00;0.00;;;;;;;;4764811;29;28700;-89
2022/11/07 08:00:40;;;;;;;;;0.00;0.00;;;;;;;;4767207;29;29052;-92
2022/11/07 08:03:06;;;;;;;;;0.00;0.00;;;;;;;;4762473;29;28992;-91
2022/11/07 08:05:31;;;;;;;;;0.00;0.00;;;;;;;;4767792;29;28863;-89
2022/11/07 08:07:56;;;;;;;;;0.00;0.00;;;;;;;;4761298;29;28967;-89
2022/11/07 08:10:22;;;;;;;;;0.00;0.00;;;;;;;;4738307;29;29711;-89
2022/11/07 08:12:50;;;;;;;;;0.00;0.00;;;;;;;;4742769;29;29153;-90
2022/11/07 08:15:19;;;;;;;;;0.00;0.00;;;;;;;;4742577;29;28766;-89
2022/11/07 08:17:44;;;;;;;;;0.00;0.00;;;;;;;;4743067;29;29073;-88
2022/11/07 08:20:11;;;;;;;;;0.00;0.00;;;;;;;;4741397;30;30806;-89
2022/11/07 08:22:37;;;;;;;;;0.00;0.00;;;;;;;;4736132;29;29204;-89
2022/11/07 08:25:03;;;;;;;;;0.00;0.00;;;;;;;;4759529;29;28916;-89
2022/11/07 08:27:28;;;;;;;;;0.00;0.00;;;;;;;;4761641;29;29428;-89
2022/11/07 08:29:53;;;;;;;;;0.00;0.00;;;;;;;;4740892;29;30396;-89
2022/11/07 08:32:18;;;;;;;;;0.00;0.00;;;;;;;;4764294;29;29580;-90
2022/11/07 08:34:44;;;;;;;;;0.00;0.00;;;;;;;;4745226;29;29186;-89
2022/11/07 08:37:09;;;;;;;;;0.00;0.00;;;;;;;;4757065;29;28835;-90
2022/11/07 08:39:34;;;;;;;;;0.00;0.00;;;;;;;;4742162;29;31671;-89
2022/11/07 08:41:59;;;;;;;;;0.00;0.00;;;;;;;;4738527;29;29369;-89
2022/11/07 08:44:24;;;;;;;;;0.00;0.00;;;;;;;;4744362;29;28562;-89
2022/11/07 08:46:49;;;;;;;;;0.00;0.00;;;;;;;;4743167;29;28702;-90
2022/11/07 08:49:15;;;;;;;;;0.00;0.00;;;;;;;;4758234;29;28603;-89
2022/11/07 08:51:40;;;;;;;;;0.00;0.00;;;;;;;;4757982;29;28392;-91
2022/11/07 08:54:05;;;;;;;;;0.00;0.00;;;;;;;;4742866;29;28538;-88
2022/11/07 08:56:31;;;;;;;;;0.00;0.00;;;;;;;;4754876;29;28564;-90
2022/11/07 08:58:56;;;;;;;;;0.00;0.00;;;;;;;;4758890;29;28635;-89
2022/11/07 09:01:22;;;;;;;;;0.00;0.00;;;;;;;;4738660;29;28622;-89
2022/11/07 09:03:47;;;;;;;;;0.00;0.00;;;;;;;;4743165;29;28508;-90
2022/11/07 09:06:12;;;;;;;;;0.00;0.00;;;;;;;;4745100;29;28903;-89
2022/11/07 09:08:39;;;;;;;;;0.00;0.00;;;;;;;;4766173;29;28571;-89
2022/11/07 09:11:04;;;;;;;;;0.00;0.00;;;;;;;;4742583;29;28688;-89
2022/11/07 09:13:30;;;;;;;;;0.00;0.00;;;;;;;;4757610;29;28453;-88
2022/11/07 09:15:59;;;;;;;;;11.00;11.00;;;;;;;;4741456;29;28487;-89
2022/11/07 09:18:25;;;;;;;;;0.00;0.00;;;;;;;;4752794;29;29858;-88
2022/11/07 09:20:50;;;;;;;;;0.00;0.00;;;;;;;;4755094;29;28758;-89
2022/11/07 09:23:15;;;;;;;;;0.00;0.00;;;;;;;;4744999;30;28734;-88
2022/11/07 09:25:41;;;;;;;;;0.00;0.00;;;;;;;;4742831;29;28496;-90
2022/11/07 09:28:06;;;;;;;;;0.00;0.00;;;;;;;;4756466;29;29400;-89
2022/11/07 09:30:31;;;;;;;;;0.00;0.00;;;;;;;;4757289;29;28461;-89
2022/11/07 09:32:56;;;;;;;;;0.00;0.00;;;;;;;;4747496;29;28933;-90
2022/11/07 09:35:22;;;;;;;;;0.00;0.00;;;;;;;;4736033;30;27976;-89
2022/11/07 09:37:48;;;;;;;;;0.00;0.00;;;;;;;;4750975;29;28631;-89
2022/11/07 09:40:23;;;;;;;;;0.00;0.00;;;;;;;;4761131;29;28541;-89
2022/11/07 09:43:08;;;;;;;;;0.00;0.00;;;;;;;;4762043;29;28575;-90
2022/11/07 09:45:37;;;;;;;;;0.00;0.00;;;;;;;;4756827;29;28792;-89
2022/11/07 09:48:05;;;;;;;;;0.00;0.00;;;;;;;;4747852;29;30816;-89
2022/11/07 09:50:37;;;;;;;;;0.00;0.00;;;;;;;;4744133;29;28609;-90
2022/11/07 09:53:11;;;;;;;;;0.00;0.00;;;;;;;;4738164;29;28637;-91
2022/11/07 09:55:40;;;;;;;;;0.00;0.00;;;;;;;;4740497;29;29947;-90
2022/11/07 09:58:24;;;;;;;;;0.00;0.00;;;;;;;;4760706;29;28528;-88
2022/11/07 10:00:50;;;;;;;;;0.33;0.00;;;;;;;;4731436;29;28757;-88
2022/11/07 10:03:16;;;;;;;;;0.00;0.00;;;;;;;;4763662;29;28461;-89
2022/11/07 10:05:48;;;;;;;;;0.00;0.00;;;;;;;;4744639;29;28566;-89
2022/11/07 10:08:20;;;;;;;;;0.00;0.00;;;;;;;;4742826;30;30463;-89
2022/11/07 10:10:45;;;;;;;;;0.00;0.00;;;;;;;;4736322;29;28963;-90
2022/11/07 10:13:16;;;;;;;;;0.00;0.00;;;;;;;;4747632;29;28896;-89
2022/11/07 10:15:44;;;;;;;;;0.00;0.00;;;;;;;;4739960;30;28430;-89
2022/11/07 10:18:16;;;;;;;;;0.00;0.00;;;;;;;;4744211;29;29842;-89
2022/11/07 10:20:51;;;;;;;;;0.00;0.00;;;;;;;;4748820;29;28125;-89
2022/11/07 10:23:20;;;;;;;;;0.00;0.00;;;;;;;;4742518;30;28471;-89
2022/11/07 10:26:08;;;;;;;;;0.00;0.00;;;;;;;;4734919;30;28508;-89
2022/11/07 10:28:38;;;;;;;;;0.00;0.00;;;;;;;;4765380;29;28668;-89
2022/11/07 10:31:05;;;;;;;;;0.00;0.00;;;;;;;;4770842;29;28480;-88
2022/11/07 10:33:30;;;;;;;;;0.00;0.00;;;;;;;;4747480;29;28494;-89
2022/11/07 10:36:00;;;;;;;;;0.00;0.00;;;;;;;;4756868;29;28526;-88
2022/11/07 10:38:26;;;;;;;;;0.00;0.00;;;;;;;;4766810;29;28584;-89
2022/11/07 10:40:52;;;;;;;;;0.00;0.00;;;;;;;;4742777;29;29023;-88
2022/11/07 10:43:38;;;;;;;;;0.00;0.00;;;;;;;;4747878;29;28565;-89
2022/11/07 10:46:16;;;;;;;;;0.00;0.00;;;;;;;;4755941;29;28576;-90
2022/11/07 10:48:51;;;;;;;;;0.00;0.00;;;;;;;;4763976;29;28515;-90
2022/11/07 10:51:16;;;;;;;;;0.00;0.00;;;;;;;;4738340;29;28758;-90
2022/11/07 10:53:42;;;;;;;;;0.00;0.00;;;;;;;;4760837;29;28522;-89
2022/11/07 10:56:09;;;;;;;;;0.00;0.00;;;;;;;;4756111;29;28575;-89
2022/11/07 10:58:41;;;;;;;;;0.00;0.00;;;;;;;;4766288;29;28529;-89
2022/11/07 11:01:08;;;;;;;;;0.00;0.00;;;;;;;;4744651;29;28736;-89
2022/11/07 11:03:38;;;;;;;;;0.00;0.00;;;;;;;;4756091;29;28557;-88
2022/11/07 11:06:09;;;;;;;;;0.00;0.00;;;;;;;;4750925;29;28552;-91
2022/11/07 11:08:35;;;;;;;;;0.00;0.00;;;;;;;;4756656;29;29173;-91
2022/11/07 11:11:11;;;;;;;;;0.00;0.00;;;;;;;;4759938;29;29608;-88
2022/11/07 11:13:36;;;;;;;;;0.00;0.00;;;;;;;;4736575;30;28648;-88
2022/11/07 11:16:14;;;;;;;;;0.00;0.00;;;;;;;;4743346;29;28533;-87
2022/11/07 11:18:49;;;;;;;;;0.00;0.00;;;;;;;;4749075;29;30172;-88
2022/11/07 11:21:15;;;;;;;;;0.00;0.00;;;;;;;;4758872;29;28531;-89
2022/11/07 11:23:42;;;;;;;;;0.00;0.00;;;;;;;;4750415;29;28489;-88
2022/11/07 11:26:13;;;;;;;;;0.00;0.00;;;;;;;;4739125;29;28584;-91
2022/11/07 11:28:41;;;;;;;;;0.00;0.00;;;;;;;;4744607;29;30888;-88
2022/11/07 11:31:10;;;;;;;;;0.00;0.00;;;;;;;;4751177;29;28613;-89
2022/11/07 11:33:41;;;;;;;;;0.00;0.00;;;;;;;;4749906;30;28607;-88
2022/11/07 11:36:12;;;;;;;;;0.00;0.00;;;;;;;;4742098;29;28330;-89
2022/11/07 11:38:38;;;;;;;;;0.00;0.00;;;;;;;;4756677;29;28428;-88
2022/11/07 11:41:18;;;;;;;;;0.00;0.00;;;;;;;;4752211;29;28989;-89
2022/11/07 11:43:47;;;;;;;;;0.00;0.00;;;;;;;;4737471;30;28546;-88
2022/11/07 11:46:12;;;;;;;;;0.00;0.00;;;;;;;;4750566;29;28505;-88
2022/11/07 11:48:43;;;;;;;;;0.00;0.00;;;;;;;;4752883;29;29042;-88
2022/11/07 11:51:17;;;;;;;;;0.00;0.00;;;;;;;;4748718;29;28495;-88
2022/11/07 11:53:42;;;;;;;;;0.00;0.00;;;;;;;;4760896;29;28420;-88
2022/11/07 11:56:29;;;;;;;;;0.00;0.00;;;;;;;;4752752;29;28867;-88
2022/11/07 11:59:00;;;;;;;;;0.00;0.00;;;;;;;;4736097;30;30235;-88
2022/11/07 12:01:35;;;;;;;;;0.00;0.00;;;;;;;;4739191;29;28743;-89
2022/11/07 12:04:00;;;;;;;;;0.00;0.00;;;;;;;;4751920;29;28474;-88
2022/11/07 12:06:30;;;;;;;;;0.00;0.00;;;;;;;;4737541;30;28462;-88
2022/11/07 12:09:09;;;;;;;;;0.00;0.00;;;;;;;;4751045;29;28524;-88
2022/11/07 12:11:36;;;;;;;;;0.00;0.00;;;;;;;;4749615;29;29641;-88
2022/11/07 12:14:25;;;;;;;;;0.00;0.00;;;;;;;;4745025;29;28689;-89
2022/11/07 12:16:57;;;;;;;;;0.00;0.00;;;;;;;;4730854;30;28528;-89
2022/11/07 12:19:25;;;;;;;;;0.00;0.00;;;;;;;;4754323;29;28469;-88
2022/11/07 12:22:11;;;;;;;;;0.00;0.00;;;;;;;;4744716;30;29160;-88
2022/11/07 12:24:37;;;;;;;;;3.00;1.00;;;;;;;;4752860;29;28453;-88
2022/11/07 12:27:05;;;;;;;;;0.00;0.00;;;;;;;;4736820;29;28538;-88
2022/11/07 12:29:46;;;;;;;;;0.00;0.00;;;;;;;;4761621;29;28518;-88
2022/11/07 12:32:11;;;;;;;;;0.00;0.00;;;;;;;;4750746;29;28373;-88
2022/11/07 12:34:55;;;;;;;;;0.00;0.00;;;;;;;;4754431;29;28390;-88
2022/11/07 12:37:39;;;;;;;;;0.00;0.00;;;;;;;;4734958;30;28348;-88
2022/11/07 12:40:07;;;;;;;;;0.00;0.00;;;;;;;;4752034;29;30074;-88
2022/11/07 12:42:50;;;;;;;;;0.00;0.00;;;;;;;;4739853;29;28553;-88
2022/11/07 12:45:16;;;;;;;;;0.00;0.00;;;;;;;;4740936;30;28471;-88
2022/11/07 12:47:54;;;;;;;;;0.00;0.00;;;;;;;;4737046;29;28803;-88
2022/11/07 12:50:25;;;;;;;;;0.00;0.00;;;;;;;;4736152;30;31609;-88
2022/11/07 12:53:05;;;;;;;;;0.33;0.33;;;;;;;;4744160;29;29919;-88
2022/11/07 12:55:33;;;;;;;;;0.00;0.00;;;;;;;;4734516;30;28545;-88
2022/11/07 12:58:00;;;;;;;;;0.00;0.00;;;;;;;;4746580;29;28533;-89
2022/11/07 13:00:26;;;;;;;;;0.00;0.00;;;;;;;;4737840;30;31065;-87
2022/11/07 13:03:10;;;;;;;;;1.00;1.00;;;;;;;;4755732;29;28584;-87
2022/11/07 13:05:41;;;;;;;;;0.00;0.00;;;;;;;;4766884;29;27834;-85
2022/11/07 13:08:10;;;;;;;;;0.00;0.00;;;;;;;;4755330;29;28448;-88
2022/11/07 13:10:58;;;;;;;;;0.00;0.00;;;;;;;;4744695;29;29778;-88
2022/11/07 13:13:39;;;;;;;;;0.00;0.00;;;;;;;;4732029;30;28803;-87
2022/11/07 13:16:25;;;;;;;;;0.00;0.00;;;;;;;;4752409;29;27954;-88
2022/11/07 13:18:50;;;;;;;;;0.00;0.00;;;;;;;;4761524;29;28403;-89
2022/11/07 13:21:15;;;;;;;;;0.00;0.00;;;;;;;;4735513;29;31208;-88
2022/11/07 13:23:40;;;;;;;;;0.00;0.00;;;;;;;;4742255;30;29690;-89
2022/11/07 13:26:06;;;;;;;;;0.00;0.00;;;;;;;;4735237;29;28687;-88
2022/11/07 13:28:34;;;;;;;;;0.00;0.00;;;;;;;;4736536;30;28546;-88
2022/11/07 13:30:59;;;;;;;;;0.00;0.00;;;;;;;;4758489;29;29540;-88
2022/11/07 13:33:26;;;;;;;;;0.00;0.00;;;;;;;;4739551;29;29066;-88
2022/11/07 13:35:53;;;;;;;;;0.00;0.00;;;;;;;;4739464;29;28500;-87
2022/11/07 13:38:21;;;;;;;;;0.00;0.00;;;;;;;;4758431;29;28397;-88
2022/11/07 13:40:48;;;;;;;;;0.00;0.00;;;;;;;;4735926;30;30306;-88
2022/11/07 13:43:25;;;;;;;;;0.00;0.00;;;;;;;;4741507;29;28826;-88
2022/11/07 13:45:54;;;;;;;;;0.00;0.00;;;;;;;;4739281;29;28431;-88
2022/11/07 13:48:25;;;;;;;;;0.00;0.00;;;;;;;;4748272;29;28477;-88
2022/11/07 13:50:56;;;;;;;;;0.00;0.00;;;;;;;;4734074;29;30109;-88
2022/11/07 13:53:34;;;;;;;;;0.00;0.00;;;;;;;;4746685;29;28479;-88
2022/11/07 13:56:02;;;;;;;;;0.00;0.00;;;;;;;;4743444;29;28525;-88
2022/11/07 13:58:28;;;;;;;;;0.00;0.00;;;;;;;;4762917;29;28767;-89
2022/11/07 14:00:53;;;;;;;;;0.00;0.00;;;;;;;;4749470;29;30301;-88
2022/11/07 14:03:23;;;;;;;;;0.00;0.00;;;;;;;;4764244;29;28578;-88
2022/11/07 14:05:49;;;;;;;;;0.00;0.00;;;;;;;;4747680;29;28482;-88
2022/11/07 14:08:19;;;;;;;;;0.00;0.00;;;;;;;;4757927;29;28453;-89
2022/11/07 14:10:46;;;;;;;;;0.00;0.00;;;;;;;;4763243;29;28565;-88
2022/11/07 14:13:13;;;;;;;;;0.00;0.00;;;;;;;;4756124;29;28594;-87
2022/11/07 14:15:46;;;;;;;;;0.00;0.00;;;;;;;;4752078;29;28549;-87
2022/11/07 14:18:13;;;;;;;;;0.00;0.00;;;;;;;;4757213;29;28458;-86
2022/11/07 14:20:44;;;;;;;;;0.00;0.00;;;;;;;;4760466;29;28464;-87
2022/11/07 14:23:10;;;;;;;;;0.00;0.00;;;;;;;;4739900;29;28797;-88
2022/11/07 14:25:36;;;;;;;;;0.00;0.00;;;;;;;;4757664;29;28401;-88
2022/11/07 14:28:01;;;;;;;;;0.00;0.00;;;;;;;;4747350;29;28579;-88
2022/11/07 14:30:27;;;;;;;;;0.00;0.00;;;;;;;;4759338;29;29139;-89
2022/11/07 14:32:57;;;;;;;;;0.00;0.00;;;;;;;;4744669;29;28559;-88
2022/11/07 14:35:23;;;;;;;;;0.00;0.00;;;;;;;;4737138;30;28814;-88
2022/11/07 14:37:48;;;;;;;;;0.00;0.00;;;;;;;;4753417;29;28407;-88
2022/11/07 14:40:14;;;;;;;;;0.00;0.00;;;;;;;;4759878;29;28931;-88
2022/11/07 14:42:41;;;;;;;;;0.00;0.00;;;;;;;;4764096;29;28856;-88
2022/11/07 14:45:07;;;;;;;;;0.00;0.00;;;;;;;;4744821;29;28343;-88
2022/11/07 14:47:32;;;;;;;;;0.00;0.00;;;;;;;;4752856;29;28553;-87
2022/11/07 14:49:58;;;;;;;;;0.00;0.00;;;;;;;;4738675;29;30661;-88
2022/11/07 14:52:39;;;;;;;;;0.00;0.00;;;;;;;;4735309;30;30131;-90
2022/11/07 14:55:10;;;;;;;;;0.00;0.00;;;;;;;;4743230;29;28851;-88
2022/11/07 14:57:36;;;;;;;;;0.00;0.00;;;;;;;;4762526;29;28600;-88
2022/11/07 15:00:04;;;;;;;;;0.00;0.00;;;;;;;;4761720;29;28666;-88
2022/11/07 15:02:30;;;;;;;;;0.00;0.00;;;;;;;;4758301;29;28443;-88
2022/11/07 15:04:55;;;;;;;;;0.00;0.00;;;;;;;;4759428;29;28598;-88
2022/11/07 15:07:28;;;;;;;;;0.00;0.00;;;;;;;;4750949;29;28355;-88
2022/11/07 15:09:55;;;;;;;;;0.00;0.00;;;;;;;;4758353;29;30069;-88
2022/11/07 15:12:34;;;;;;;;;0.00;0.00;;;;;;;;4739723;29;29828;-88
2022/11/07 15:15:10;;;;;;;;;0.00;0.00;;;;;;;;4745742;30;28468;-89